sensor_id;sensor_type;location;lat;lon;timestamp;temperature;humidity
4687;DHT22;2357;47.316;-1.348;2023-03-14T00:01:14;11.30;99.90
4687;DHT22;2357;47.316;-1.348;2023-03-14T00:03:40;11.30;99.90
4687;DHT22;2357;47.316;-1.348;2023-03-14T00:06:07;11.30;99.90
4687;DHT22;2357;47.316;-1.348;2023-03-14T00:08:33;11.30;99.90
4687;DHT22;2357;47.316;-1.348;2023-03-14T00:11:05;11.30;99.90
4687;DHT22;2357;47.316;-1.348;2023-03-14T00:13:30;11.30;99.90
4687;DHT22;2357;47.316;-1.348;2023-03-14T00:16:04;11.30;99.90
4687;DHT22;2357;47.316;-1.348;2023-03-14T00:18:30;11.30;99.90
4687;DHT22;2357;47.316;-1.348;2023-03-14T00:21:01;11.40;99.90
4687;DHT22;2357;47.316;-1.348;2023-03-14T00:23:28;11.40;99.90
4687;DHT22;2357;47.316;-1.348;2023-03-14T00:25:58;11.40;99.90
4687;DHT22;2357;47.316;-1.348;2023-03-14T00:28:24;11.40;99.90
4687;DHT22;2357;47.316;-1.348;2023-03-14T00:30:49;11.40;99.90
4687;DHT22;2357;47.316;-1.348;2023-03-14T00:33:15;11.40;99.90
4687;DHT22;2357;47.316;-1.348;2023-03-14T00:35:40;11.40;99.90
4687;DHT22;2357;47.316;-1.348;2023-03-14T00:38:06;11.40;99.90
4687;DHT22;2357;47.316;-1.348;2023-03-14T00:40:32;11.40;99.90
4687;DHT22;2357;47.316;-1.348;2023-03-14T00:42:57;11.50;99.90
4687;DHT22;2357;47.316;-1.348;2023-03-14T00:45:23;11.40;99.90
4687;DHT22;2357;47.316;-1.348;2023-03-14T00:47:48;11.30;99.90
4687;DHT22;2357;47.316;-1.348;2023-03-14T00:50:14;11.40;99.90
4687;DHT22;2357;47.316;-1.348;2023-03-14T00:52:40;11.40;99.90
4687;DHT22;2357;47.316;-1.348;2023-03-14T00:55:06;11.30;99.90
4687;DHT22;2357;47.316;-1.348;2023-03-14T00:57:31;11.30;99.90
4687;DHT22;2357;47.316;-1.348;2023-03-14T00:59:57;11.40;99.90
4687;DHT22;2357;47.316;-1.348;2023-03-14T01:02:23;11.40;99.90
4687;DHT22;2357;47.316;-1.348;2023-03-14T01:04:49;11.40;99.90
4687;DHT22;2357;47.316;-1.348;2023-03-14T01:07:15;11.00;99.90
4687;DHT22;2357;47.316;-1.348;2023-03-14T01:09:41;11.30;99.90
4687;DHT22;2357;47.316;-1.348;2023-03-14T01:12:07;11.30;99.90
4687;DHT22;2357;47.316;-1.348;2023-03-14T01:14:32;11.30;99.90
4687;DHT22;2357;47.316;-1.348;2023-03-14T01:16:58;11.20;99.90
4687;DHT22;2357;47.316;-1.348;2023-03-14T01:19:27;11.20;99.90
4687;DHT22;2357;47.316;-1.348;2023-03-14T01:21:53;11.20;99.90
4687;DHT22;2357;47.316;-1.348;2023-03-14T01:24:19;11.10;99.90
4687;DHT22;2357;47.316;-1.348;2023-03-14T01:26:46;11.10;99.90
4687;DHT22;2357;47.316;-1.348;2023-03-14T01:29:11;11.10;99.90
4687;DHT22;2357;47.316;-1.348;2023-03-14T01:31:37;11.10;99.90
4687;DHT22;2357;47.316;-1.348;2023-03-14T01:34:03;10.90;99.90
4687;DHT22;2357;47.316;-1.348;2023-03-14T01:36:28;11.10;99.90
4687;DHT22;2357;47.316;-1.348;2023-03-14T01:38:54;11.10;99.90
4687;DHT22;2357;47.316;-1.348;2023-03-14T01:41:24;11.10;99.90
4687;DHT22;2357;47.316;-1.348;2023-03-14T01:43:50;11.00;99.90
4687;DHT22;2357;47.316;-1.348;2023-03-14T01:46:29;11.00;99.90
4687;DHT22;2357;47.316;-1.348;2023-03-14T01:52:02;11.00;99.90
4687;DHT22;2357;47.316;-1.348;2023-03-14T01:54:40;10.90;99.90
4687;DHT22;2357;47.316;-1.348;2023-03-14T01:59:37;10.80;99.90
4687;DHT22;2357;47.316;-1.348;2023-03-14T02:02:06;10.80;99.90
4687;DHT22;2357;47.316;-1.348;2023-03-14T02:04:36;10.80;99.90
4687;DHT22;2357;47.316;-1.348;2023-03-14T02:07:51;10.70;99.90
4687;DHT22;2357;47.316;-1.348;2023-03-14T02:10:19;10.70;99.90
4687;DHT22;2357;47.316;-1.348;2023-03-14T02:12:47;10.60;99.90
4687;DHT22;2357;47.316;-1.348;2023-03-14T02:15:14;10.60;99.90
4687;DHT22;2357;47.316;-1.348;2023-03-14T02:17:41;10.60;99.90
4687;DHT22;2357;47.316;-1.348;2023-03-14T02:20:10;10.60;99.90
4687;DHT22;2357;47.316;-1.348;2023-03-14T02:22:40;10.60;99.90
4687;DHT22;2357;47.316;-1.348;2023-03-14T02:25:31;10.60;99.90
4687;DHT22;2357;47.316;-1.348;2023-03-14T02:28:01;10.60;99.90
4687;DHT22;2357;47.316;-1.348;2023-03-14T02:30:29;10.60;99.90
4687;DHT22;2357;47.316;-1.348;2023-03-14T02:33:00;10.60;99.90
4687;DHT22;2357;47.316;-1.348;2023-03-14T02:35:32;10.50;99.90
4687;DHT22;2357;47.316;-1.348;2023-03-14T02:40:46;10.40;99.90
4687;DHT22;2357;47.316;-1.348;2023-03-14T02:43:12;10.30;99.90
4687;DHT22;2357;47.316;-1.348;2023-03-14T02:45:41;10.30;99.90
4687;DHT22;2357;47.316;-1.348;2023-03-14T02:48:13;10.20;99.90
4687;DHT22;2357;47.316;-1.348;2023-03-14T02:50:38;10.20;99.90
4687;DHT22;2357;47.316;-1.348;2023-03-14T02:53:05;10.20;99.90
4687;DHT22;2357;47.316;-1.348;2023-03-14T02:55:30;10.10;99.90
4687;DHT22;2357;47.316;-1.348;2023-03-14T02:57:56;10.00;99.90
4687;DHT22;2357;47.316;-1.348;2023-03-14T03:00:22;10.00;99.90
4687;DHT22;2357;47.316;-1.348;2023-03-14T03:02:47;10.00;99.90
4687;DHT22;2357;47.316;-1.348;2023-03-14T03:05:13;10.00;99.90
4687;DHT22;2357;47.316;-1.348;2023-03-14T03:07:39;9.90;99.90
4687;DHT22;2357;47.316;-1.348;2023-03-14T03:10:05;9.80;99.90
4687;DHT22;2357;47.316;-1.348;2023-03-14T03:12:30;9.90;99.90
4687;DHT22;2357;47.316;-1.348;2023-03-14T03:14:56;9.90;99.90
4687;DHT22;2357;47.316;-1.348;2023-03-14T03:17:21;9.90;99.90
4687;DHT22;2357;47.316;-1.348;2023-03-14T03:19:47;9.80;99.90
4687;DHT22;2357;47.316;-1.348;2023-03-14T03:22:13;9.80;99.90
4687;DHT22;2357;47.316;-1.348;2023-03-14T03:24:38;9.80;99.90
4687;DHT22;2357;47.316;-1.348;2023-03-14T03:27:04;9.90;99.90
4687;DHT22;2357;47.316;-1.348;2023-03-14T03:29:29;9.90;99.90
4687;DHT22;2357;47.316;-1.348;2023-03-14T03:31:55;9.90;99.90
4687;DHT22;2357;47.316;-1.348;2023-03-14T03:34:21;9.90;99.90
4687;DHT22;2357;47.316;-1.348;2023-03-14T03:36:47;10.00;99.90
4687;DHT22;2357;47.316;-1.348;2023-03-14T03:39:12;10.00;99.90
4687;DHT22;2357;47.316;-1.348;2023-03-14T03:41:38;10.00;99.90
4687;DHT22;2357;47.316;-1.348;2023-03-14T03:44:04;10.00;99.90
4687;DHT22;2357;47.316;-1.348;2023-03-14T03:46:31;10.00;99.90
4687;DHT22;2357;47.316;-1.348;2023-03-14T03:48:58;9.80;99.90
4687;DHT22;2357;47.316;-1.348;2023-03-14T03:51:24;9.80;99.90
4687;DHT22;2357;47.316;-1.348;2023-03-14T03:53:50;9.70;99.90
4687;DHT22;2357;47.316;-1.348;2023-03-14T03:56:16;9.60;99.90
4687;DHT22;2357;47.316;-1.348;2023-03-14T03:58:41;9.50;99.90
4687;DHT22;2357;47.316;-1.348;2023-03-14T04:01:08;9.40;99.90
4687;DHT22;2357;47.316;-1.348;2023-03-14T04:03:34;9.30;99.90
4687;DHT22;2357;47.316;-1.348;2023-03-14T04:06:05;9.20;99.90
4687;DHT22;2357;47.316;-1.348;2023-03-14T04:08:31;9.10;99.90
4687;DHT22;2357;47.316;-1.348;2023-03-14T04:10:58;9.20;99.90
4687;DHT22;2357;47.316;-1.348;2023-03-14T04:13:25;9.10;99.90
4687;DHT22;2357;47.316;-1.348;2023-03-14T04:15:51;9.10;99.90
4687;DHT22;2357;47.316;-1.348;2023-03-14T04:18:17;9.10;99.90
4687;DHT22;2357;47.316;-1.348;2023-03-14T04:20:43;9.10;99.90
4687;DHT22;2357;47.316;-1.348;2023-03-14T04:23:09;9.20;99.90
4687;DHT22;2357;47.316;-1.348;2023-03-14T04:25:34;9.10;99.90
4687;DHT22;2357;47.316;-1.348;2023-03-14T04:28:01;9.10;99.90
4687;DHT22;2357;47.316;-1.348;2023-03-14T04:30:26;9.10;99.90
4687;DHT22;2357;47.316;-1.348;2023-03-14T04:32:52;9.10;99.90
4687;DHT22;2357;47.316;-1.348;2023-03-14T04:35:18;9.10;99.90
4687;DHT22;2357;47.316;-1.348;2023-03-14T04:37:43;9.00;99.90
4687;DHT22;2357;47.316;-1.348;2023-03-14T04:40:11;9.00;99.90
4687;DHT22;2357;47.316;-1.348;2023-03-14T04:42:37;9.00;99.90
4687;DHT22;2357;47.316;-1.348;2023-03-14T04:45:03;9.10;99.90
4687;DHT22;2357;47.316;-1.348;2023-03-14T04:47:28;9.00;99.90
4687;DHT22;2357;47.316;-1.348;2023-03-14T04:49:54;9.00;99.90
4687;DHT22;2357;47.316;-1.348;2023-03-14T04:52:20;9.00;99.90
4687;DHT22;2357;47.316;-1.348;2023-03-14T04:54:45;8.90;99.90
4687;DHT22;2357;47.316;-1.348;2023-03-14T04:57:11;8.90;99.90
4687;DHT22;2357;47.316;-1.348;2023-03-14T04:59:37;8.90;99.90
4687;DHT22;2357;47.316;-1.348;2023-03-14T05:02:02;8.90;99.90
4687;DHT22;2357;47.316;-1.348;2023-03-14T05:04:29;8.90;99.90
4687;DHT22;2357;47.316;-1.348;2023-03-14T05:06:58;8.90;99.90
4687;DHT22;2357;47.316;-1.348;2023-03-14T05:09:24;8.90;99.90
4687;DHT22;2357;47.316;-1.348;2023-03-14T05:11:49;8.90;99.90
4687;DHT22;2357;47.316;-1.348;2023-03-14T05:14:15;8.90;99.90
4687;DHT22;2357;47.316;-1.348;2023-03-14T05:16:40;8.90;99.90
4687;DHT22;2357;47.316;-1.348;2023-03-14T05:19:06;8.80;99.90
4687;DHT22;2357;47.316;-1.348;2023-03-14T05:21:32;8.80;99.90
4687;DHT22;2357;47.316;-1.348;2023-03-14T05:23:57;8.80;99.90
4687;DHT22;2357;47.316;-1.348;2023-03-14T05:26:23;8.70;99.90
4687;DHT22;2357;47.316;-1.348;2023-03-14T05:28:49;8.80;99.90
4687;DHT22;2357;47.316;-1.348;2023-03-14T05:31:14;8.80;99.90
4687;DHT22;2357;47.316;-1.348;2023-03-14T05:33:40;8.80;99.90
4687;DHT22;2357;47.316;-1.348;2023-03-14T05:36:06;8.80;99.90
4687;DHT22;2357;47.316;-1.348;2023-03-14T05:38:32;8.70;99.90
4687;DHT22;2357;47.316;-1.348;2023-03-14T05:40:58;8.70;99.90
4687;DHT22;2357;47.316;-1.348;2023-03-14T05:43:23;8.70;99.90
4687;DHT22;2357;47.316;-1.348;2023-03-14T05:45:49;8.60;99.90
4687;DHT22;2357;47.316;-1.348;2023-03-14T05:48:14;8.60;99.90
4687;DHT22;2357;47.316;-1.348;2023-03-14T05:50:40;8.60;99.90
4687;DHT22;2357;47.316;-1.348;2023-03-14T05:53:06;8.70;99.90
4687;DHT22;2357;47.316;-1.348;2023-03-14T05:55:31;8.70;99.90
4687;DHT22;2357;47.316;-1.348;2023-03-14T05:57:57;8.60;99.90
4687;DHT22;2357;47.316;-1.348;2023-03-14T06:00:23;8.60;99.90
4687;DHT22;2357;47.316;-1.348;2023-03-14T06:02:48;8.60;99.90
4687;DHT22;2357;47.316;-1.348;2023-03-14T06:05:14;8.60;99.90
4687;DHT22;2357;47.316;-1.348;2023-03-14T06:07:39;8.60;99.90
4687;DHT22;2357;47.316;-1.348;2023-03-14T06:10:06;8.50;99.90
4687;DHT22;2357;47.316;-1.348;2023-03-14T06:12:32;8.50;99.90
4687;DHT22;2357;47.316;-1.348;2023-03-14T06:14:57;8.50;99.90
4687;DHT22;2357;47.316;-1.348;2023-03-14T06:17:23;8.50;99.90
4687;DHT22;2357;47.316;-1.348;2023-03-14T06:19:48;8.40;99.90
4687;DHT22;2357;47.316;-1.348;2023-03-14T06:22:14;8.40;99.90
4687;DHT22;2357;47.316;-1.348;2023-03-14T06:24:40;8.30;99.90
4687;DHT22;2357;47.316;-1.348;2023-03-14T06:27:05;8.30;99.90
4687;DHT22;2357;47.316;-1.348;2023-03-14T06:29:31;8.30;99.90
4687;DHT22;2357;47.316;-1.348;2023-03-14T06:31:57;8.30;99.90
4687;DHT22;2357;47.316;-1.348;2023-03-14T06:34:22;8.40;99.90
4687;DHT22;2357;47.316;-1.348;2023-03-14T06:36:48;8.30;99.90
4687;DHT22;2357;47.316;-1.348;2023-03-14T06:39:14;8.40;99.90
4687;DHT22;2357;47.316;-1.348;2023-03-14T06:41:39;8.30;99.90
4687;DHT22;2357;47.316;-1.348;2023-03-14T06:44:05;8.30;99.90
4687;DHT22;2357;47.316;-1.348;2023-03-14T06:46:30;8.40;99.90
4687;DHT22;2357;47.316;-1.348;2023-03-14T06:48:56;8.40;99.90
4687;DHT22;2357;47.316;-1.348;2023-03-14T06:51:22;8.40;99.90
4687;DHT22;2357;47.316;-1.348;2023-03-14T06:53:48;8.50;99.90
4687;DHT22;2357;47.316;-1.348;2023-03-14T06:56:13;8.50;99.90
4687;DHT22;2357;47.316;-1.348;2023-03-14T06:58:39;8.50;99.90
4687;DHT22;2357;47.316;-1.348;2023-03-14T07:01:06;8.60;99.90
4687;DHT22;2357;47.316;-1.348;2023-03-14T07:03:32;8.60;99.90
4687;DHT22;2357;47.316;-1.348;2023-03-14T07:05:58;8.60;99.90
4687;DHT22;2357;47.316;-1.348;2023-03-14T07:08:23;8.60;99.90
4687;DHT22;2357;47.316;-1.348;2023-03-14T07:10:49;8.60;99.90
4687;DHT22;2357;47.316;-1.348;2023-03-14T07:13:15;8.60;99.90
4687;DHT22;2357;47.316;-1.348;2023-03-14T07:15:40;8.60;99.90
4687;DHT22;2357;47.316;-1.348;2023-03-14T07:18:06;8.70;99.90
4687;DHT22;2357;47.316;-1.348;2023-03-14T07:20:32;8.80;99.90
4687;DHT22;2357;47.316;-1.348;2023-03-14T07:22:58;8.80;99.90
4687;DHT22;2357;47.316;-1.348;2023-03-14T07:25:25;8.90;99.90
4687;DHT22;2357;47.316;-1.348;2023-03-14T07:27:52;8.80;99.90
4687;DHT22;2357;47.316;-1.348;2023-03-14T07:30:17;8.90;99.90
4687;DHT22;2357;47.316;-1.348;2023-03-14T07:32:43;8.90;99.90
4687;DHT22;2357;47.316;-1.348;2023-03-14T07:35:09;8.90;99.90
4687;DHT22;2357;47.316;-1.348;2023-03-14T07:37:34;8.90;99.90
4687;DHT22;2357;47.316;-1.348;2023-03-14T07:40:00;8.90;99.90
4687;DHT22;2357;47.316;-1.348;2023-03-14T07:42:26;9.00;99.90
4687;DHT22;2357;47.316;-1.348;2023-03-14T07:44:51;9.10;99.90
4687;DHT22;2357;47.316;-1.348;2023-03-14T07:47:17;9.20;99.90
4687;DHT22;2357;47.316;-1.348;2023-03-14T07:49:43;9.20;99.90
4687;DHT22;2357;47.316;-1.348;2023-03-14T07:52:08;9.30;99.90
4687;DHT22;2357;47.316;-1.348;2023-03-14T07:54:34;9.30;99.90
4687;DHT22;2357;47.316;-1.348;2023-03-14T07:57:00;9.30;99.90
4687;DHT22;2357;47.316;-1.348;2023-03-14T07:59:27;9.50;99.90
4687;DHT22;2357;47.316;-1.348;2023-03-14T08:01:53;9.50;99.90
4687;DHT22;2357;47.316;-1.348;2023-03-14T08:04:18;9.40;99.90
4687;DHT22;2357;47.316;-1.348;2023-03-14T08:06:44;9.50;99.90
4687;DHT22;2357;47.316;-1.348;2023-03-14T08:09:10;9.60;99.90
4687;DHT22;2357;47.316;-1.348;2023-03-14T08:11:36;9.60;99.90
4687;DHT22;2357;47.316;-1.348;2023-03-14T08:14:01;9.70;99.90
4687;DHT22;2357;47.316;-1.348;2023-03-14T08:16:27;9.70;99.90
4687;DHT22;2357;47.316;-1.348;2023-03-14T08:18:52;9.80;99.90
4687;DHT22;2357;47.316;-1.348;2023-03-14T08:21:18;9.70;99.90
4687;DHT22;2357;47.316;-1.348;2023-03-14T08:23:44;9.80;99.90
4687;DHT22;2357;47.316;-1.348;2023-03-14T08:26:09;9.80;99.90
4687;DHT22;2357;47.316;-1.348;2023-03-14T08:28:35;9.80;99.90
4687;DHT22;2357;47.316;-1.348;2023-03-14T08:31:01;9.80;99.90
4687;DHT22;2357;47.316;-1.348;2023-03-14T08:33:28;9.90;99.90
4687;DHT22;2357;47.316;-1.348;2023-03-14T08:35:59;9.90;99.90
4687;DHT22;2357;47.316;-1.348;2023-03-14T08:38:25;9.90;99.90
4687;DHT22;2357;47.316;-1.348;2023-03-14T08:41:01;10.00;99.90
4687;DHT22;2357;47.316;-1.348;2023-03-14T08:43:28;10.00;99.90
4687;DHT22;2357;47.316;-1.348;2023-03-14T08:45:57;10.10;99.90
4687;DHT22;2357;47.316;-1.348;2023-03-14T08:48:23;10.20;99.90
4687;DHT22;2357;47.316;-1.348;2023-03-14T08:50:48;10.30;99.90
4687;DHT22;2357;47.316;-1.348;2023-03-14T08:53:14;10.30;99.90
4687;DHT22;2357;47.316;-1.348;2023-03-14T08:55:40;10.30;99.90
4687;DHT22;2357;47.316;-1.348;2023-03-14T08:58:05;10.20;99.90
4687;DHT22;2357;47.316;-1.348;2023-03-14T09:00:31;10.30;99.90
4687;DHT22;2357;47.316;-1.348;2023-03-14T09:02:56;10.40;99.90
4687;DHT22;2357;47.316;-1.348;2023-03-14T09:05:22;10.50;99.90
4687;DHT22;2357;47.316;-1.348;2023-03-14T09:07:48;10.60;99.90
4687;DHT22;2357;47.316;-1.348;2023-03-14T09:10:13;10.60;99.90
4687;DHT22;2357;47.316;-1.348;2023-03-14T09:12:39;10.60;99.90
4687;DHT22;2357;47.316;-1.348;2023-03-14T09:15:05;10.60;99.90
4687;DHT22;2357;47.316;-1.348;2023-03-14T09:17:31;10.50;99.90
4687;DHT22;2357;47.316;-1.348;2023-03-14T09:19:57;10.60;99.90
4687;DHT22;2357;47.316;-1.348;2023-03-14T09:22:22;10.70;99.90
4687;DHT22;2357;47.316;-1.348;2023-03-14T09:24:48;10.70;99.90
4687;DHT22;2357;47.316;-1.348;2023-03-14T09:27:13;10.60;99.90
4687;DHT22;2357;47.316;-1.348;2023-03-14T09:29:39;10.80;99.90
4687;DHT22;2357;47.316;-1.348;2023-03-14T09:32:05;10.80;99.90
4687;DHT22;2357;47.316;-1.348;2023-03-14T09:34:31;10.90;99.90
4687;DHT22;2357;47.316;-1.348;2023-03-14T09:36:56;11.10;99.90
4687;DHT22;2357;47.316;-1.348;2023-03-14T09:39:22;11.10;99.90
4687;DHT22;2357;47.316;-1.348;2023-03-14T09:41:50;11.10;99.90
4687;DHT22;2357;47.316;-1.348;2023-03-14T09:44:30;11.10;99.90
4687;DHT22;2357;47.316;-1.348;2023-03-14T09:47:06;11.10;99.90
4687;DHT22;2357;47.316;-1.348;2023-03-14T09:49:33;11.20;99.90
4687;DHT22;2357;47.316;-1.348;2023-03-14T09:52:02;11.20;99.90
4687;DHT22;2357;47.316;-1.348;2023-03-14T09:54:45;11.30;99.90
4687;DHT22;2357;47.316;-1.348;2023-03-14T09:57:17;11.40;99.90
4687;DHT22;2357;47.316;-1.348;2023-03-14T09:59:45;11.50;99.90
4687;DHT22;2357;47.316;-1.348;2023-03-14T10:02:20;11.50;99.90
4687;DHT22;2357;47.316;-1.348;2023-03-14T10:04:48;11.50;99.90
4687;DHT22;2357;47.316;-1.348;2023-03-14T10:07:16;11.60;99.90
4687;DHT22;2357;47.316;-1.348;2023-03-14T10:09:45;11.70;99.90
4687;DHT22;2357;47.316;-1.348;2023-03-14T10:12:12;11.60;99.90
4687;DHT22;2357;47.316;-1.348;2023-03-14T10:14:46;11.70;99.90
4687;DHT22;2357;47.316;-1.348;2023-03-14T10:17:13;11.60;99.90
4687;DHT22;2357;47.316;-1.348;2023-03-14T10:19:58;11.60;99.90
4687;DHT22;2357;47.316;-1.348;2023-03-14T10:22:27;11.70;99.90
4687;DHT22;2357;47.316;-1.348;2023-03-14T10:25:05;11.70;99.90
4687;DHT22;2357;47.316;-1.348;2023-03-14T10:27:34;11.90;99.90
4687;DHT22;2357;47.316;-1.348;2023-03-14T10:30:06;11.90;99.90
4687;DHT22;2357;47.316;-1.348;2023-03-14T10:32:38;11.80;99.90
4687;DHT22;2357;47.316;-1.348;2023-03-14T10:35:19;11.70;99.90
4687;DHT22;2357;47.316;-1.348;2023-03-14T10:37:58;11.90;99.90
4687;DHT22;2357;47.316;-1.348;2023-03-14T10:40:31;11.70;99.90
4687;DHT22;2357;47.316;-1.348;2023-03-14T10:43:01;11.70;99.90
4687;DHT22;2357;47.316;-1.348;2023-03-14T10:45:35;11.60;99.90
4687;DHT22;2357;47.316;-1.348;2023-03-14T10:48:30;11.60;99.90
4687;DHT22;2357;47.316;-1.348;2023-03-14T10:51:19;11.80;99.90
4687;DHT22;2357;47.316;-1.348;2023-03-14T10:56:20;11.90;99.90
4687;DHT22;2357;47.316;-1.348;2023-03-14T10:58:48;12.20;99.90
4687;DHT22;2357;47.316;-1.348;2023-03-14T11:04:01;12.10;99.90
4687;DHT22;2357;47.316;-1.348;2023-03-14T11:11:54;12.40;99.90
4687;DHT22;2357;47.316;-1.348;2023-03-14T11:14:43;12.60;99.90
4687;DHT22;2357;47.316;-1.348;2023-03-14T11:17:27;12.60;99.90
4687;DHT22;2357;47.316;-1.348;2023-03-14T11:20:31;12.80;99.90
4687;DHT22;2357;47.316;-1.348;2023-03-14T11:23:18;13.00;99.90
4687;DHT22;2357;47.316;-1.348;2023-03-14T11:28:22;13.60;99.90
4687;DHT22;2357;47.316;-1.348;2023-03-14T11:30:53;13.50;99.90
4687;DHT22;2357;47.316;-1.348;2023-03-14T11:33:38;13.30;99.90
4687;DHT22;2357;47.316;-1.348;2023-03-14T11:36:15;13.00;99.90
4687;DHT22;2357;47.316;-1.348;2023-03-14T11:38:56;12.90;99.90
4687;DHT22;2357;47.316;-1.348;2023-03-14T11:41:54;13.10;99.90
4687;DHT22;2357;47.316;-1.348;2023-03-14T11:44:24;13.10;99.90
4687;DHT22;2357;47.316;-1.348;2023-03-14T11:47:02;13.20;99.90
4687;DHT22;2357;47.316;-1.348;2023-03-14T11:49:36;13.20;99.90
4687;DHT22;2357;47.316;-1.348;2023-03-14T11:52:13;13.10;99.90
4687;DHT22;2357;47.316;-1.348;2023-03-14T11:54:45;13.30;99.90
4687;DHT22;2357;47.316;-1.348;2023-03-14T11:57:22;13.20;99.90
4687;DHT22;2357;47.316;-1.348;2023-03-14T12:02:40;13.20;99.90
4687;DHT22;2357;47.316;-1.348;2023-03-14T12:08:29;13.80;99.90
4687;DHT22;2357;47.316;-1.348;2023-03-14T12:11:35;13.80;99.90
4687;DHT22;2357;47.316;-1.348;2023-03-14T12:14:01;14.00;99.90
4687;DHT22;2357;47.316;-1.348;2023-03-14T12:16:38;14.30;99.90
4687;DHT22;2357;47.316;-1.348;2023-03-14T12:19:30;14.60;99.90
4687;DHT22;2357;47.316;-1.348;2023-03-14T12:24:30;14.20;99.90
4687;DHT22;2357;47.316;-1.348;2023-03-14T12:26:59;14.20;99.90
4687;DHT22;2357;47.316;-1.348;2023-03-14T12:29:25;14.40;99.90
4687;DHT22;2357;47.316;-1.348;2023-03-14T12:32:26;14.50;99.90
4687;DHT22;2357;47.316;-1.348;2023-03-14T12:34:51;14.30;99.90
4687;DHT22;2357;47.316;-1.348;2023-03-14T12:37:32;14.40;99.90
4687;DHT22;2357;47.316;-1.348;2023-03-14T12:42:56;14.60;99.90
4687;DHT22;2357;47.316;-1.348;2023-03-14T12:45:31;14.40;99.90
4687;DHT22;2357;47.316;-1.348;2023-03-14T12:48:24;14.60;99.90
4687;DHT22;2357;47.316;-1.348;2023-03-14T12:51:01;14.80;99.90
4687;DHT22;2357;47.316;-1.348;2023-03-14T12:53:57;14.60;99.90
4687;DHT22;2357;47.316;-1.348;2023-03-14T12:59:28;14.70;99.90
4687;DHT22;2357;47.316;-1.348;2023-03-14T13:02:00;15.00;99.90
4687;DHT22;2357;47.316;-1.348;2023-03-14T13:07:01;15.00;99.90
4687;DHT22;2357;47.316;-1.348;2023-03-14T13:12:11;14.60;99.90
4687;DHT22;2357;47.316;-1.348;2023-03-14T13:14:45;14.60;99.90
4687;DHT22;2357;47.316;-1.348;2023-03-14T13:17:15;15.00;99.90
4687;DHT22;2357;47.316;-1.348;2023-03-14T13:19:52;15.00;99.90
4687;DHT22;2357;47.316;-1.348;2023-03-14T13:22:27;15.10;99.90
4687;DHT22;2357;47.316;-1.348;2023-03-14T13:25:04;15.30;99.90
4687;DHT22;2357;47.316;-1.348;2023-03-14T13:27:33;15.00;99.90
4687;DHT22;2357;47.316;-1.348;2023-03-14T13:30:04;14.90;99.90
4687;DHT22;2357;47.316;-1.348;2023-03-14T13:32:30;14.60;99.90
4687;DHT22;2357;47.316;-1.348;2023-03-14T13:34:57;14.60;99.90
4687;DHT22;2357;47.316;-1.348;2023-03-14T13:37:25;14.10;99.90
4687;DHT22;2357;47.316;-1.348;2023-03-14T13:39:52;14.60;99.90
4687;DHT22;2357;47.316;-1.348;2023-03-14T13:42:20;14.90;99.90
4687;DHT22;2357;47.316;-1.348;2023-03-14T13:44:47;15.00;99.90
4687;DHT22;2357;47.316;-1.348;2023-03-14T13:47:18;15.30;99.90
4687;DHT22;2357;47.316;-1.348;2023-03-14T13:49:46;15.80;99.90
4687;DHT22;2357;47.316;-1.348;2023-03-14T13:52:41;15.80;99.90
4687;DHT22;2357;47.316;-1.348;2023-03-14T13:55:17;15.80;99.90
4687;DHT22;2357;47.316;-1.348;2023-03-14T14:02:47;14.80;99.90
4687;DHT22;2357;47.316;-1.348;2023-03-14T14:05:13;15.30;99.90
4687;DHT22;2357;47.316;-1.348;2023-03-14T14:07:40;15.70;99.90
4687;DHT22;2357;47.316;-1.348;2023-03-14T14:10:11;15.50;99.90
4687;DHT22;2357;47.316;-1.348;2023-03-14T14:12:41;15.60;99.90
4687;DHT22;2357;47.316;-1.348;2023-03-14T14:15:29;15.40;99.90
4687;DHT22;2357;47.316;-1.348;2023-03-14T14:18:01;15.00;99.90
4687;DHT22;2357;47.316;-1.348;2023-03-14T14:20:40;14.60;99.90
4687;DHT22;2357;47.316;-1.348;2023-03-14T14:23:15;15.50;99.90
4687;DHT22;2357;47.316;-1.348;2023-03-14T14:25:43;15.80;99.90
4687;DHT22;2357;47.316;-1.348;2023-03-14T14:28:38;16.20;99.90
4687;DHT22;2357;47.316;-1.348;2023-03-14T14:31:22;16.20;99.90
4687;DHT22;2357;47.316;-1.348;2023-03-14T14:36:26;16.20;99.90
4687;DHT22;2357;47.316;-1.348;2023-03-14T14:38:57;15.20;99.90
4687;DHT22;2357;47.316;-1.348;2023-03-14T14:41:31;15.40;99.90
4687;DHT22;2357;47.316;-1.348;2023-03-14T14:43:58;15.30;99.90
4687;DHT22;2357;47.316;-1.348;2023-03-14T14:46:27;15.00;99.90
4687;DHT22;2357;47.316;-1.348;2023-03-14T14:49:01;15.00;99.90
4687;DHT22;2357;47.316;-1.348;2023-03-14T14:51:32;14.90;99.90
4687;DHT22;2357;47.316;-1.348;2023-03-14T14:54:04;15.10;99.90
4687;DHT22;2357;47.316;-1.348;2023-03-14T14:56:35;15.00;99.90
4687;DHT22;2357;47.316;-1.348;2023-03-14T14:59:02;14.80;99.90
4687;DHT22;2357;47.316;-1.348;2023-03-14T15:01:37;14.80;99.90
4687;DHT22;2357;47.316;-1.348;2023-03-14T15:04:09;15.00;99.90
4687;DHT22;2357;47.316;-1.348;2023-03-14T15:06:36;14.70;99.90
4687;DHT22;2357;47.316;-1.348;2023-03-14T15:09:02;14.60;99.90
4687;DHT22;2357;47.316;-1.348;2023-03-14T15:11:28;14.50;99.90
4687;DHT22;2357;47.316;-1.348;2023-03-14T15:13:54;14.40;99.90
4687;DHT22;2357;47.316;-1.348;2023-03-14T15:16:23;14.30;99.90
4687;DHT22;2357;47.316;-1.348;2023-03-14T15:18:56;14.20;99.90
4687;DHT22;2357;47.316;-1.348;2023-03-14T15:21:23;14.40;99.90
4687;DHT22;2357;47.316;-1.348;2023-03-14T15:23:49;14.30;99.90
4687;DHT22;2357;47.316;-1.348;2023-03-14T15:26:17;14.50;99.90
4687;DHT22;2357;47.316;-1.348;2023-03-14T15:28:43;14.80;99.90
4687;DHT22;2357;47.316;-1.348;2023-03-14T15:31:12;15.20;99.90
4687;DHT22;2357;47.316;-1.348;2023-03-14T15:33:38;15.30;99.90
4687;DHT22;2357;47.316;-1.348;2023-03-14T15:36:04;15.40;99.90
4687;DHT22;2357;47.316;-1.348;2023-03-14T15:38:30;15.50;99.90
4687;DHT22;2357;47.316;-1.348;2023-03-14T15:40:56;15.50;99.90
4687;DHT22;2357;47.316;-1.348;2023-03-14T15:43:21;15.10;99.90
4687;DHT22;2357;47.316;-1.348;2023-03-14T15:45:47;14.70;99.90
4687;DHT22;2357;47.316;-1.348;2023-03-14T15:48:18;14.40;99.90
4687;DHT22;2357;47.316;-1.348;2023-03-14T15:50:44;14.50;99.90
4687;DHT22;2357;47.316;-1.348;2023-03-14T15:53:10;16.50;99.90
4687;DHT22;2357;47.316;-1.348;2023-03-14T15:55:36;18.50;99.90
4687;DHT22;2357;47.316;-1.348;2023-03-14T15:58:02;20.50;99.90
4687;DHT22;2357;47.316;-1.348;2023-03-14T16:00:28;21.80;99.90
4687;DHT22;2357;47.316;-1.348;2023-03-14T16:02:54;22.40;99.90
4687;DHT22;2357;47.316;-1.348;2023-03-14T16:05:20;23.00;99.90
4687;DHT22;2357;47.316;-1.348;2023-03-14T16:07:46;20.70;99.90
4687;DHT22;2357;47.316;-1.348;2023-03-14T16:10:13;20.60;99.90
4687;DHT22;2357;47.316;-1.348;2023-03-14T16:12:39;19.40;99.90
4687;DHT22;2357;47.316;-1.348;2023-03-14T16:15:05;18.70;99.90
4687;DHT22;2357;47.316;-1.348;2023-03-14T16:17:32;18.30;99.90
4687;DHT22;2357;47.316;-1.348;2023-03-14T16:19:57;17.80;99.90
4687;DHT22;2357;47.316;-1.348;2023-03-14T16:22:23;18.70;99.90
4687;DHT22;2357;47.316;-1.348;2023-03-14T16:24:49;17.90;99.90
4687;DHT22;2357;47.316;-1.348;2023-03-14T16:27:14;16.70;99.90
4687;DHT22;2357;47.316;-1.348;2023-03-14T16:29:41;16.00;99.90
4687;DHT22;2357;47.316;-1.348;2023-03-14T16:32:07;15.50;99.90
4687;DHT22;2357;47.316;-1.348;2023-03-14T16:34:33;15.40;99.90
4687;DHT22;2357;47.316;-1.348;2023-03-14T16:36:58;14.80;99.90
4687;DHT22;2357;47.316;-1.348;2023-03-14T16:39:24;14.60;99.90
4687;DHT22;2357;47.316;-1.348;2023-03-14T16:41:50;14.40;99.90
4687;DHT22;2357;47.316;-1.348;2023-03-14T16:44:15;14.20;99.90
4687;DHT22;2357;47.316;-1.348;2023-03-14T16:46:41;14.30;99.90
4687;DHT22;2357;47.316;-1.348;2023-03-14T16:49:07;14.30;99.90
4687;DHT22;2357;47.316;-1.348;2023-03-14T16:51:32;14.10;99.90